Time;durP1;ratioP1;P1;durP2;ratioP2;P2;SDS_P1;SDS_P2;PMS_P1;PMS_P2;Temp;Humidity;BMP_temperature;BMP_pressure;BME280_temperature;BME280_humidity;BME280_pressure;Samples;Min_cycle;Max_cycle;Signal;HPM_P1;HPM_P2
2022/01/16 00:00:16;;;;;;;;;;;1.50;99.90;;;;;;5014628;28;19921;-76
2022/01/16 00:05:29;;;;;;;;;;;1.40;99.90;;;;;;5030745;28;19929;-76
2022/01/16 00:07:56;;;;;;;;;;;1.40;99.90;;;;;;5014931;28;19925;-75
2022/01/16 00:10:24;;;;;;;;;;;1.30;99.90;;;;;;5014533;28;19944;-76
2022/01/16 00:12:49;;;;;;;;;;;1.40;99.90;;;;;;5014237;28;20362;-76
2022/01/16 00:15:19;;;;;;;;;;;1.30;99.90;;;;;;5013500;28;19964;-76
2022/01/16 00:17:54;;;;;;;;;;;1.40;99.90;;;;;;5014294;28;19924;-76
2022/01/16 00:20:20;;;;;;;;;;;1.30;99.90;;;;;;5014183;28;19921;-76
2022/01/16 00:22:47;;;;;;;;;;;1.30;99.90;;;;;;5014063;28;19921;-76
2022/01/16 00:25:14;;;;;;;;;;;1.40;99.90;;;;;;5013854;28;19947;-76
2022/01/16 00:27:40;;;;;;;;;;;1.40;99.90;;;;;;5029676;28;19921;-76
2022/01/16 00:30:05;;;;;;;;;;;1.40;99.90;;;;;;5015580;28;20311;-76
2022/01/16 00:32:31;;;;;;;;;;;1.40;99.90;;;;;;5014348;28;19921;-75
2022/01/16 00:34:56;;;;;;;;;;;1.40;99.90;;;;;;5014426;28;19924;-76
2022/01/16 00:37:22;;;;;;;;;;;1.50;99.90;;;;;;5013899;28;20371;-75
2022/01/16 00:39:47;;;;;;;;;;;1.50;99.90;;;;;;5013573;28;19929;-76
2022/01/16 00:42:13;;;;;;;;;;;1.50;99.90;;;;;;5014045;28;19921;-75
2022/01/16 00:44:38;;;;;;;;;;;1.50;99.90;;;;;;5014324;28;20006;-76
2022/01/16 00:47:04;;;;;;;;;;;1.50;99.90;;;;;;5032087;28;20374;-75
2022/01/16 00:49:31;;;;;;;;;;;1.50;99.90;;;;;;5017795;28;19952;-75
2022/01/16 00:51:56;;;;;;;;;;;1.50;99.90;;;;;;5017689;28;19929;-76
2022/01/16 00:54:22;;;;;;;;;;;1.50;99.90;;;;;;5017643;28;19925;-76
2022/01/16 00:56:47;;;;;;;;;;;1.50;99.90;;;;;;5017849;28;19988;-76
2022/01/16 00:59:13;;;;;;;;;;;1.60;99.90;;;;;;5017474;28;19925;-75
2022/01/16 01:01:38;;;;;;;;;;;1.50;99.90;;;;;;5017772;28;20392;-76
2022/01/16 01:04:04;;;;;;;;;;;1.60;99.90;;;;;;5016921;28;19925;-76
2022/01/16 01:06:29;;;;;;;;;;;1.60;99.90;;;;;;5018202;28;19927;-75
2022/01/16 01:08:56;;;;;;;;;;;1.60;99.90;;;;;;5017203;28;19928;-74
2022/01/16 01:11:27;;;;;;;;;;;1.70;99.90;;;;;;5017203;28;19932;-75
2022/01/16 01:16:38;;;;;;;;;;;1.60;99.90;;;;;;5033980;28;19929;-74
2022/01/16 01:19:04;;;;;;;;;;;1.70;99.90;;;;;;5016841;28;20008;-75
2022/01/16 01:21:30;;;;;;;;;;;1.70;99.90;;;;;;5033652;28;20060;-74
2022/01/16 01:23:57;;;;;;;;;;;1.70;99.90;;;;;;5033044;28;19940;-74
2022/01/16 01:26:32;;;;;;;;;;;1.70;99.90;;;;;;5033315;28;19928;-75
2022/01/16 01:28:58;;;;;;;;;;;1.70;99.90;;;;;;5017167;28;20015;-75
2022/01/16 01:31:25;;;;;;;;;;;1.70;99.90;;;;;;5016972;28;20372;-74
2022/01/16 01:33:51;;;;;;;;;;;1.70;99.90;;;;;;5016356;28;19928;-74
2022/01/16 01:36:16;;;;;;;;;;;1.70;99.90;;;;;;5032895;28;20373;-75
2022/01/16 01:38:42;;;;;;;;;;;1.70;99.90;;;;;;5016749;28;20457;-74
2022/01/16 01:41:07;;;;;;;;;;;1.70;99.90;;;;;;5016663;28;19921;-74
2022/01/16 01:51:33;;;;;;;;;;;1.70;99.90;;;;;;5033033;28;20458;-74
2022/01/16 01:53:59;;;;;;;;;;;1.70;99.90;;;;;;5016553;28;19921;-74
2022/01/16 01:56:25;;;;;;;;;;;1.70;99.90;;;;;;5016565;28;19921;-74
2022/01/16 01:58:51;;;;;;;;;;;1.70;99.90;;;;;;5015541;28;19935;-74
2022/01/16 02:01:17;;;;;;;;;;;1.70;99.90;;;;;;5016415;28;19975;-74
2022/01/16 02:03:43;;;;;;;;;;;1.70;99.90;;;;;;5016088;28;20272;-75
2022/01/16 02:06:09;;;;;;;;;;;1.70;99.90;;;;;;5032692;28;19925;-74
2022/01/16 02:08:35;;;;;;;;;;;1.70;99.90;;;;;;5016358;28;19921;-74
2022/01/16 02:11:02;;;;;;;;;;;1.80;99.90;;;;;;5016361;28;19921;-74
2022/01/16 02:13:35;;;;;;;;;;;1.80;99.90;;;;;;5032677;28;19928;-75
2022/01/16 02:29:58;;;;;;;;;;;1.80;99.90;;;;;;5032533;28;19929;-74
2022/01/16 02:34:39;;;;;;;;;;;1.80;99.90;;;;;;5031411;28;20021;-74
2022/01/16 02:37:10;;;;;;;;;;;1.80;99.90;;;;;;5016068;28;19922;-75
2022/01/16 02:39:41;;;;;;;;;;;1.80;99.90;;;;;;5015734;28;19921;-75
2022/01/16 02:42:09;;;;;;;;;;;1.80;99.90;;;;;;5015392;28;19976;-74
2022/01/16 02:44:43;;;;;;;;;;;1.80;99.90;;;;;;5015087;28;20432;-75
2022/01/16 02:47:13;;;;;;;;;;;1.80;99.90;;;;;;5014495;28;19928;-74
2022/01/16 02:49:44;;;;;;;;;;;1.80;99.90;;;;;;5015476;28;19928;-74
2022/01/16 02:52:12;;;;;;;;;;;1.80;99.90;;;;;;5031649;28;20395;-74
2022/01/16 02:54:39;;;;;;;;;;;1.80;99.90;;;;;;5015468;28;19921;-74
2022/01/16 02:57:07;;;;;;;;;;;1.80;99.90;;;;;;5014958;28;20022;-74
2022/01/16 02:59:33;;;;;;;;;;;1.80;99.90;;;;;;5031328;28;19964;-74
2022/01/16 03:02:00;;;;;;;;;;;1.90;99.90;;;;;;5015159;28;19932;-74
2022/01/16 03:04:26;;;;;;;;;;;1.90;99.90;;;;;;5014965;28;19921;-74
2022/01/16 03:06:52;;;;;;;;;;;1.90;99.90;;;;;;5031809;28;20366;-74
2022/01/16 03:09:19;;;;;;;;;;;1.90;99.90;;;;;;5015101;28;19968;-74
2022/01/16 03:11:49;;;;;;;;;;;1.90;99.90;;;;;;5014898;28;19975;-74
2022/01/16 03:14:16;;;;;;;;;;;2.00;99.90;;;;;;5014682;28;19952;-74
2022/01/16 03:16:45;;;;;;;;;;;1.90;99.90;;;;;;5015801;28;20330;-74
2022/01/16 03:21:55;;;;;;;;;;;2.00;99.90;;;;;;5031407;28;19996;-74
2022/01/16 03:24:25;;;;;;;;;;;2.00;99.90;;;;;;5014007;28;19940;-74
2022/01/16 03:26:55;;;;;;;;;;;2.00;99.90;;;;;;5003944;28;19929;-74
2022/01/16 03:29:20;;;;;;;;;;;2.00;99.90;;;;;;5014847;28;19921;-74
2022/01/16 03:31:46;;;;;;;;;;;2.00;99.90;;;;;;5014830;28;20319;-75
2022/01/16 03:34:11;;;;;;;;;;;2.00;99.90;;;;;;5014992;28;19959;-75
2022/01/16 03:36:37;;;;;;;;;;;2.10;99.90;;;;;;5014911;28;20401;-75
2022/01/16 03:39:03;;;;;;;;;;;2.10;99.90;;;;;;5014339;28;20434;-74
2022/01/16 03:41:30;;;;;;;;;;;2.10;99.90;;;;;;4997420;28;23190;-75
2022/01/16 03:44:02;;;;;;;;;;;2.10;99.90;;;;;;5030898;28;20016;-74
2022/01/16 03:46:34;;;;;;;;;;;2.10;99.90;;;;;;5030749;28;20307;-74
2022/01/16 03:49:07;;;;;;;;;;;2.10;99.90;;;;;;5015012;28;19921;-74
2022/01/16 03:51:33;;;;;;;;;;;2.10;99.90;;;;;;5014478;28;19921;-74
2022/01/16 03:53:59;;;;;;;;;;;2.20;99.90;;;;;;5014133;28;20286;-74
2022/01/16 03:56:24;;;;;;;;;;;2.20;99.90;;;;;;5014574;28;19928;-74
2022/01/16 03:58:50;;;;;;;;;;;2.20;99.90;;;;;;5014358;28;19979;-74
2022/01/16 04:01:16;;;;;;;;;;;2.20;99.90;;;;;;5014507;28;19921;-74
2022/01/16 04:03:41;;;;;;;;;;;2.20;99.90;;;;;;5014194;28;20450;-74
2022/01/16 04:06:07;;;;;;;;;;;2.30;99.90;;;;;;5014666;28;19921;-74
2022/01/16 04:08:32;;;;;;;;;;;2.30;99.90;;;;;;5013930;28;20433;-74
2022/01/16 04:10:59;;;;;;;;;;;2.30;99.90;;;;;;5013975;28;19921;-74
2022/01/16 04:13:25;;;;;;;;;;;2.30;99.90;;;;;;5030535;28;19929;-74
2022/01/16 04:15:50;;;;;;;;;;;2.30;99.90;;;;;;5013921;28;19921;-74
2022/01/16 04:18:16;;;;;;;;;;;2.30;99.90;;;;;;5014223;28;19925;-74
2022/01/16 04:20:41;;;;;;;;;;;2.40;99.90;;;;;;5014041;28;19947;-74
2022/01/16 04:23:09;;;;;;;;;;;2.40;99.90;;;;;;5017235;28;19921;-74
2022/01/16 04:25:35;;;;;;;;;;;2.40;99.90;;;;;;5019200;28;19921;-76
2022/01/16 04:28:01;;;;;;;;;;;2.40;99.90;;;;;;5018121;28;20001;-76
2022/01/16 04:30:26;;;;;;;;;;;2.50;99.90;;;;;;5018323;28;20451;-76
2022/01/16 04:32:52;;;;;;;;;;;2.40;99.90;;;;;;5018088;28;20383;-76
2022/01/16 04:35:17;;;;;;;;;;;2.50;99.90;;;;;;5017962;28;20016;-76
2022/01/16 04:37:43;;;;;;;;;;;2.50;99.90;;;;;;5034264;28;20024;-76
2022/01/16 04:40:10;;;;;;;;;;;2.50;99.90;;;;;;5034269;28;19928;-76
2022/01/16 04:45:19;;;;;;;;;;;2.50;99.90;;;;;;5035193;28;20367;-76
2022/01/16 04:47:47;;;;;;;;;;;2.50;99.90;;;;;;5017827;28;19968;-76
2022/01/16 04:50:13;;;;;;;;;;;2.60;99.90;;;;;;5017210;28;19925;-76
2022/01/16 04:52:39;;;;;;;;;;;2.60;99.90;;;;;;5033937;28;19928;-77
2022/01/16 04:55:06;;;;;;;;;;;2.60;99.90;;;;;;5034102;28;19921;-75
2022/01/16 04:57:32;;;;;;;;;;;2.60;99.90;;;;;;5017503;28;20015;-76
2022/01/16 04:59:57;;;;;;;;;;;2.60;99.90;;;;;;5017255;28;20001;-76
2022/01/16 05:02:23;;;;;;;;;;;2.60;99.90;;;;;;5017673;28;20011;-76
2022/01/16 05:04:48;;;;;;;;;;;2.60;99.90;;;;;;5033351;28;19921;-76
2022/01/16 05:07:14;;;;;;;;;;;2.60;99.90;;;;;;5017596;28;20264;-76
2022/01/16 05:09:39;;;;;;;;;;;2.60;99.90;;;;;;5017203;28;19999;-76
2022/01/16 05:12:11;;;;;;;;;;;2.60;99.90;;;;;;5034032;28;19921;-76
2022/01/16 05:17:20;;;;;;;;;;;2.60;99.90;;;;;;5034535;28;20046;-75
2022/01/16 05:19:46;;;;;;;;;;;2.60;99.90;;;;;;5033833;28;20552;-76
2022/01/16 05:22:11;;;;;;;;;;;2.70;99.90;;;;;;5034997;28;19971;-76
2022/01/16 05:24:37;;;;;;;;;;;2.70;99.90;;;;;;5033374;28;19956;-76
2022/01/16 05:27:04;;;;;;;;;;;2.60;99.90;;;;;;5016716;28;19921;-76
2022/01/16 05:29:30;;;;;;;;;;;2.60;99.90;;;;;;5033195;28;19925;-76
2022/01/16 05:31:56;;;;;;;;;;;2.60;99.90;;;;;;5016755;28;19932;-76
2022/01/16 05:34:25;;;;;;;;;;;2.70;99.90;;;;;;5015477;28;19925;-76
2022/01/16 05:36:51;;;;;;;;;;;2.60;99.90;;;;;;5016891;28;20334;-76
2022/01/16 05:39:17;;;;;;;;;;;2.60;99.90;;;;;;5016645;28;19925;-75
2022/01/16 05:41:42;;;;;;;;;;;2.70;99.90;;;;;;5032875;28;19944;-76
2022/01/16 05:44:08;;;;;;;;;;;2.70;99.90;;;;;;5016399;28;20406;-76
2022/01/16 05:46:34;;;;;;;;;;;2.70;99.90;;;;;;5016321;28;20417;-76
2022/01/16 05:48:59;;;;;;;;;;;2.70;99.90;;;;;;5033371;28;19921;-76
2022/01/16 05:51:25;;;;;;;;;;;2.70;99.90;;;;;;5032857;28;20394;-76
2022/01/16 05:53:51;;;;;;;;;;;2.70;99.90;;;;;;5034077;28;20012;-75
2022/01/16 05:56:16;;;;;;;;;;;2.80;99.90;;;;;;5032696;28;19925;-76
2022/01/16 05:58:42;;;;;;;;;;;2.70;99.90;;;;;;5032840;28;19935;-76
2022/01/16 06:01:07;;;;;;;;;;;2.70;99.90;;;;;;5016465;28;20015;-76
2022/01/16 06:03:33;;;;;;;;;;;2.80;99.90;;;;;;5032965;28;19928;-76
2022/01/16 06:05:59;;;;;;;;;;;2.80;99.90;;;;;;5016085;28;19971;-76
2022/01/16 06:08:24;;;;;;;;;;;2.80;99.90;;;;;;5032714;28;19975;-76
2022/01/16 06:10:50;;;;;;;;;;;2.80;99.90;;;;;;5016088;28;19921;-75
2022/01/16 06:13:15;;;;;;;;;;;2.80;99.90;;;;;;5015718;28;19928;-76
2022/01/16 06:15:41;;;;;;;;;;;2.80;99.90;;;;;;5032329;28;19925;-76
2022/01/16 06:18:07;;;;;;;;;;;2.80;99.90;;;;;;5016005;28;19925;-75
2022/01/16 06:20:33;;;;;;;;;;;2.90;99.90;;;;;;5015831;28;20028;-76
2022/01/16 06:22:59;;;;;;;;;;;2.90;99.90;;;;;;5015736;28;20276;-76
2022/01/16 06:25:25;;;;;;;;;;;2.90;99.90;;;;;;5015699;28;19921;-76
2022/01/16 06:27:50;;;;;;;;;;;2.90;99.90;;;;;;5015927;28;19921;-76
2022/01/16 06:30:16;;;;;;;;;;;2.90;99.90;;;;;;5015584;28;19925;-76
2022/01/16 06:32:42;;;;;;;;;;;2.90;99.90;;;;;;5032128;28;19947;-76
2022/01/16 06:35:08;;;;;;;;;;;2.90;99.90;;;;;;5032588;28;20003;-76
2022/01/16 06:37:34;;;;;;;;;;;3.00;99.90;;;;;;5015685;28;19933;-76
2022/01/16 06:39:59;;;;;;;;;;;3.00;99.90;;;;;;5015763;28;19921;-76
2022/01/16 06:42:25;;;;;;;;;;;3.00;99.90;;;;;;5015304;28;19968;-76
2022/01/16 06:44:50;;;;;;;;;;;3.00;99.90;;;;;;5030963;28;19925;-76
2022/01/16 06:47:16;;;;;;;;;;;3.00;99.90;;;;;;5015682;28;19932;-76
2022/01/16 06:49:42;;;;;;;;;;;3.10;99.90;;;;;;5015547;28;19925;-76
2022/01/16 06:52:07;;;;;;;;;;;3.10;99.90;;;;;;5031448;28;19928;-76
2022/01/16 06:54:33;;;;;;;;;;;3.10;99.90;;;;;;5015325;28;19926;-76
2022/01/16 06:56:58;;;;;;;;;;;3.10;99.90;;;;;;5032298;28;19983;-76
2022/01/16 06:59:24;;;;;;;;;;;3.20;99.90;;;;;;5015050;28;19926;-77
2022/01/16 07:01:50;;;;;;;;;;;3.20;99.90;;;;;;5031434;28;19928;-76
2022/01/16 07:04:15;;;;;;;;;;;3.30;99.90;;;;;;5015221;28;19921;-76
2022/01/16 07:06:41;;;;;;;;;;;3.30;99.90;;;;;;5015427;28;19952;-76
2022/01/16 07:09:06;;;;;;;;;;;3.30;99.90;;;;;;5031619;28;19921;-76
2022/01/16 07:11:32;;;;;;;;;;;3.30;99.90;;;;;;5014788;28;19939;-76
2022/01/16 07:13:57;;;;;;;;;;;3.30;99.90;;;;;;5014299;28;19999;-76
2022/01/16 07:16:23;;;;;;;;;;;3.40;99.90;;;;;;5031842;28;20024;-76
2022/01/16 07:18:48;;;;;;;;;;;3.40;99.90;;;;;;5015048;28;20303;-76
2022/01/16 07:21:14;;;;;;;;;;;3.50;99.90;;;;;;5015071;28;20364;-76
2022/01/16 07:23:45;;;;;;;;;;;3.50;99.90;;;;;;5014676;28;19921;-77
2022/01/16 07:26:10;;;;;;;;;;;3.50;99.90;;;;;;5014669;28;19971;-76
2022/01/16 07:28:36;;;;;;;;;;;3.60;99.90;;;;;;5014650;28;20272;-76
2022/01/16 07:31:02;;;;;;;;;;;3.60;99.90;;;;;;5014771;28;19931;-76
2022/01/16 07:33:27;;;;;;;;;;;3.60;99.90;;;;;;5014903;28;20272;-76
2022/01/16 07:35:53;;;;;;;;;;;3.70;99.90;;;;;;5014318;28;19967;-76
2022/01/16 07:38:18;;;;;;;;;;;3.70;99.90;;;;;;5030638;28;19925;-77
2022/01/16 07:40:44;;;;;;;;;;;3.70;99.90;;;;;;5030813;28;19925;-76
2022/01/16 07:43:09;;;;;;;;;;;3.80;99.90;;;;;;5032026;28;19921;-76
2022/01/16 07:45:37;;;;;;;;;;;3.80;99.90;;;;;;5031153;28;20429;-76
2022/01/16 07:48:04;;;;;;;;;;;3.90;99.90;;;;;;5031124;28;19921;-76
2022/01/16 07:50:29;;;;;;;;;;;3.90;99.90;;;;;;5014923;28;20015;-76
2022/01/16 07:52:55;;;;;;;;;;;3.90;99.90;;;;;;5030468;28;20498;-76
2022/01/16 07:55:24;;;;;;;;;;;4.00;99.90;;;;;;5030436;28;19928;-76
2022/01/16 07:57:51;;;;;;;;;;;4.00;99.90;;;;;;5013615;28;20451;-76
2022/01/16 08:00:17;;;;;;;;;;;4.00;99.90;;;;;;5012855;28;19936;-77
2022/01/16 08:02:42;;;;;;;;;;;4.10;99.90;;;;;;5028698;28;19928;-76
2022/01/16 08:05:08;;;;;;;;;;;4.10;99.90;;;;;;5014253;28;20407;-76
2022/01/16 08:07:33;;;;;;;;;;;4.10;99.90;;;;;;5030845;28;19921;-76
2022/01/16 08:09:59;;;;;;;;;;;4.10;99.90;;;;;;5011788;28;19921;-76
2022/01/16 08:12:24;;;;;;;;;;;4.10;99.90;;;;;;5030421;28;20693;-75
2022/01/16 08:14:50;;;;;;;;;;;4.10;99.90;;;;;;5030793;28;19952;-74
2022/01/16 08:17:15;;;;;;;;;;;4.10;99.90;;;;;;5008811;28;19921;-76
2022/01/16 08:19:41;;;;;;;;;;;4.10;99.90;;;;;;5007121;28;19925;-76
2022/01/16 08:22:07;;;;;;;;;;;4.10;99.90;;;;;;5014027;28;19928;-76
2022/01/16 08:24:32;;;;;;;;;;;4.10;99.90;;;;;;5012233;28;19929;-76
2022/01/16 08:26:58;;;;;;;;;;;4.10;99.90;;;;;;5012315;28;20019;-76
2022/01/16 08:29:23;;;;;;;;;;;4.10;99.90;;;;;;5006637;28;19922;-75
2022/01/16 08:31:49;;;;;;;;;;;4.10;99.90;;;;;;5018407;28;19930;-76
2022/01/16 08:34:14;;;;;;;;;;;4.10;99.90;;;;;;5017103;28;20012;-76
2022/01/16 08:36:40;;;;;;;;;;;4.20;99.90;;;;;;5011622;28;19921;-77
2022/01/16 08:39:05;;;;;;;;;;;4.10;99.90;;;;;;5020223;28;19933;-76
2022/01/16 08:41:32;;;;;;;;;;;4.20;99.90;;;;;;5011474;28;19932;-76
2022/01/16 08:43:57;;;;;;;;;;;4.20;99.90;;;;;;5010868;28;19921;-76
2022/01/16 08:46:23;;;;;;;;;;;4.20;99.90;;;;;;5008634;28;20012;-76
2022/01/16 08:48:49;;;;;;;;;;;4.20;99.90;;;;;;5024617;28;19928;-76
2022/01/16 08:51:14;;;;;;;;;;;4.20;99.90;;;;;;5003283;28;19921;-75
2022/01/16 08:53:40;;;;;;;;;;;4.30;99.90;;;;;;5021707;28;19936;-77
2022/01/16 08:56:08;;;;;;;;;;;4.30;99.90;;;;;;5007994;28;20287;-76
2022/01/16 08:58:34;;;;;;;;;;;4.30;99.90;;;;;;5042733;28;19933;-76
2022/01/16 09:01:02;;;;;;;;;;;4.40;99.90;;;;;;5029207;28;19921;-76
2022/01/16 09:03:27;;;;;;;;;;;4.40;99.90;;;;;;5023813;28;19928;-77
2022/01/16 09:05:56;;;;;;;;;;;4.40;99.90;;;;;;5017134;28;19925;-76
2022/01/16 09:08:21;;;;;;;;;;;4.50;99.90;;;;;;4997861;28;19933;-76
2022/01/16 09:10:48;;;;;;;;;;;4.50;99.90;;;;;;5009817;28;20077;-76
2022/01/16 09:13:16;;;;;;;;;;;4.50;99.90;;;;;;5025328;28;19921;-76
2022/01/16 09:15:42;;;;;;;;;;;4.60;99.90;;;;;;5016780;28;19925;-76
2022/01/16 09:18:08;;;;;;;;;;;4.50;99.90;;;;;;5016478;28;19925;-76
2022/01/16 09:20:33;;;;;;;;;;;4.60;99.90;;;;;;5015049;28;20409;-76
2022/01/16 09:22:59;;;;;;;;;;;4.60;99.90;;;;;;5010024;28;19984;-76
2022/01/16 09:25:25;;;;;;;;;;;4.70;99.90;;;;;;5027092;28;20414;-76
2022/01/16 09:27:50;;;;;;;;;;;4.70;99.90;;;;;;5025486;28;19925;-75
2022/01/16 09:30:16;;;;;;;;;;;4.70;99.90;;;;;;5027001;28;19921;-74
2022/01/16 09:32:42;;;;;;;;;;;4.70;99.90;;;;;;5011401;28;20020;-75
2022/01/16 09:35:08;;;;;;;;;;;4.70;99.90;;;;;;5010189;28;19968;-76
2022/01/16 09:37:33;;;;;;;;;;;4.80;99.90;;;;;;5007705;28;20016;-75
2022/01/16 09:40:00;;;;;;;;;;;4.70;99.90;;;;;;5012793;28;20004;-77
2022/01/16 09:42:26;;;;;;;;;;;4.80;99.90;;;;;;5007605;28;19928;-76
2022/01/16 09:44:52;;;;;;;;;;;4.80;99.90;;;;;;5010530;28;20410;-76
2022/01/16 09:47:17;;;;;;;;;;;4.70;99.90;;;;;;5025210;28;19968;-77
2022/01/16 09:49:44;;;;;;;;;;;4.80;99.90;;;;;;5030328;28;19921;-76
2022/01/16 09:52:10;;;;;;;;;;;4.90;99.90;;;;;;5016694;28;20367;-76
2022/01/16 09:54:38;;;;;;;;;;;4.90;99.90;;;;;;5010387;28;19964;-76
2022/01/16 09:57:05;;;;;;;;;;;4.90;99.90;;;;;;5012228;28;19925;-76
2022/01/16 09:59:30;;;;;;;;;;;4.90;99.90;;;;;;5031809;28;19956;-77
2022/01/16 10:01:56;;;;;;;;;;;5.00;99.90;;;;;;5032427;28;20380;-77
2022/01/16 10:04:29;;;;;;;;;;;5.00;99.90;;;;;;5010919;28;19932;-77
2022/01/16 10:06:56;;;;;;;;;;;5.00;99.90;;;;;;5014633;28;19925;-76
2022/01/16 10:09:21;;;;;;;;;;;5.00;99.90;;;;;;5025654;28;19929;-78
2022/01/16 10:11:55;;;;;;;;;;;5.00;99.90;;;;;;5009451;28;20209;-77
2022/01/16 10:14:26;;;;;;;;;;;5.00;99.90;;;;;;5020073;28;20014;-77
2022/01/16 10:16:52;;;;;;;;;;;5.00;99.90;;;;;;5014778;28;20453;-77
2022/01/16 10:19:22;;;;;;;;;;;5.10;99.90;;;;;;5010009;28;19925;-77
2022/01/16 10:21:48;;;;;;;;;;;5.10;99.90;;;;;;5012639;28;20506;-77
2022/01/16 10:24:15;;;;;;;;;;;5.10;99.90;;;;;;5007246;28;19921;-78
2022/01/16 10:26:40;;;;;;;;;;;5.10;99.90;;;;;;5005869;28;19936;-78
2022/01/16 10:29:07;;;;;;;;;;;5.20;99.90;;;;;;5008128;28;19921;-76
2022/01/16 10:31:32;;;;;;;;;;;5.20;99.90;;;;;;5011529;28;19932;-75
2022/01/16 10:33:58;;;;;;;;;;;5.20;99.90;;;;;;5026667;28;19921;-77
2022/01/16 10:36:33;;;;;;;;;;;5.20;99.90;;;;;;5008720;28;19921;-77
2022/01/16 10:39:06;;;;;;;;;;;5.30;99.90;;;;;;5007736;28;19926;-77
2022/01/16 10:41:32;;;;;;;;;;;5.30;99.90;;;;;;5014053;28;20395;-77
2022/01/16 10:44:00;;;;;;;;;;;5.30;99.90;;;;;;5005938;28;19925;-77
2022/01/16 10:46:26;;;;;;;;;;;5.40;99.90;;;;;;5013489;28;19925;-77
2022/01/16 10:49:10;;;;;;;;;;;5.40;99.90;;;;;;5008549;28;19922;-77
2022/01/16 10:51:37;;;;;;;;;;;5.40;99.90;;;;;;4999719;28;19971;-77
2022/01/16 10:54:22;;;;;;;;;;;5.50;99.90;;;;;;5009634;28;20305;-77
2022/01/16 10:56:47;;;;;;;;;;;5.50;99.90;;;;;;5023573;28;20288;-76
2022/01/16 10:59:22;;;;;;;;;;;5.50;99.90;;;;;;5011171;28;19936;-77
2022/01/16 11:02:09;;;;;;;;;;;5.60;99.90;;;;;;5005169;28;20323;-77
2022/01/16 11:04:34;;;;;;;;;;;5.60;99.90;;;;;;5013290;28;20035;-77
2022/01/16 11:07:03;;;;;;;;;;;5.60;99.90;;;;;;5007214;28;20012;-77
2022/01/16 11:09:30;;;;;;;;;;;5.70;99.90;;;;;;5011313;28;19968;-77
2022/01/16 11:11:59;;;;;;;;;;;5.70;99.90;;;;;;5013759;28;19968;-77
2022/01/16 11:14:31;;;;;;;;;;;5.90;99.90;;;;;;5004717;28;20007;-77
2022/01/16 11:16:57;;;;;;;;;;;5.80;99.90;;;;;;5022813;28;20281;-77
2022/01/16 11:19:26;;;;;;;;;;;5.80;99.90;;;;;;5011338;28;20303;-77
2022/01/16 11:21:54;;;;;;;;;;;5.90;99.90;;;;;;5002664;28;19929;-77
2022/01/16 11:24:33;;;;;;;;;;;5.80;99.90;;;;;;5012008;28;19925;-76
2022/01/16 11:27:01;;;;;;;;;;;5.90;99.90;;;;;;5014873;28;20075;-77
2022/01/16 11:29:28;;;;;;;;;;;5.90;99.90;;;;;;5014023;28;20375;-77
2022/01/16 11:31:55;;;;;;;;;;;5.90;99.90;;;;;;5016457;28;19921;-77
2022/01/16 11:34:20;;;;;;;;;;;5.90;99.90;;;;;;5004731;28;19922;-76
2022/01/16 11:36:46;;;;;;;;;;;5.90;99.90;;;;;;5001882;28;20329;-76
2022/01/16 11:39:12;;;;;;;;;;;5.90;99.90;;;;;;5020261;28;19987;-76
2022/01/16 11:41:51;;;;;;;;;;;5.90;99.90;;;;;;5019674;28;20339;-77
2022/01/16 11:44:24;;;;;;;;;;;5.90;99.90;;;;;;5002559;28;19943;-77
2022/01/16 11:46:51;;;;;;;;;;;6.00;99.90;;;;;;5005586;28;20488;-77
2022/01/16 11:49:19;;;;;;;;;;;6.00;99.90;;;;;;5013218;28;19921;-77
2022/01/16 11:51:51;;;;;;;;;;;6.00;99.90;;;;;;5026257;28;19964;-77
2022/01/16 11:54:24;;;;;;;;;;;6.00;99.90;;;;;;5001932;28;19925;-77
2022/01/16 11:56:54;;;;;;;;;;;6.00;99.90;;;;;;5012837;28;19929;-77
2022/01/16 11:59:25;;;;;;;;;;;6.10;99.90;;;;;;5015192;28;19991;-76
2022/01/16 12:01:52;;;;;;;;;;;6.10;99.90;;;;;;5008392;28;20375;-77
2022/01/16 12:04:30;;;;;;;;;;;6.10;99.90;;;;;;4997116;28;19921;-77
2022/01/16 12:06:55;;;;;;;;;;;6.20;99.90;;;;;;5022652;28;20376;-77
2022/01/16 12:09:33;;;;;;;;;;;6.20;99.90;;;;;;5002675;28;19928;-77
2022/01/16 12:11:59;;;;;;;;;;;6.20;99.90;;;;;;5005802;28;20015;-78
2022/01/16 12:14:43;;;;;;;;;;;6.20;99.90;;;;;;5013293;28;20352;-77
2022/01/16 12:17:24;;;;;;;;;;;6.30;99.90;;;;;;4997589;28;19921;-77
2022/01/16 12:19:51;;;;;;;;;;;6.40;99.90;;;;;;5024454;28;20012;-77
2022/01/16 12:22:18;;;;;;;;;;;6.50;99.90;;;;;;5028045;28;20311;-77
2022/01/16 12:24:45;;;;;;;;;;;6.50;99.90;;;;;;5008977;28;20009;-77
2022/01/16 12:27:24;;;;;;;;;;;6.60;99.90;;;;;;5008918;28;19921;-77
2022/01/16 12:30:08;;;;;;;;;;;6.60;99.90;;;;;;5005700;28;19921;-77
2022/01/16 12:32:53;;;;;;;;;;;6.60;99.90;;;;;;5013841;28;19921;-78
2022/01/16 12:35:37;;;;;;;;;;;6.70;99.90;;;;;;5011252;28;19921;-77
2022/01/16 12:38:10;;;;;;;;;;;6.70;99.90;;;;;;5008810;28;19929;-77
2022/01/16 12:40:40;;;;;;;;;;;6.70;99.90;;;;;;5003500;28;20039;-77
2022/01/16 12:43:09;;;;;;;;;;;6.80;99.90;;;;;;5007110;28;20402;-77
2022/01/16 12:45:39;;;;;;;;;;;6.80;99.90;;;;;;5008594;28;20421;-77
2022/01/16 12:48:06;;;;;;;;;;;6.80;99.90;;;;;;5004944;28;19929;-77
2022/01/16 12:50:32;;;;;;;;;;;6.80;99.90;;;;;;5011509;28;19925;-77
2022/01/16 12:53:00;;;;;;;;;;;6.80;99.90;;;;;;5004786;28;19925;-77
2022/01/16 12:55:26;;;;;;;;;;;6.80;99.90;;;;;;5012289;28;19921;-77
2022/01/16 12:57:52;;;;;;;;;;;6.80;99.90;;;;;;5025673;28;20387;-77
2022/01/16 13:00:18;;;;;;;;;;;6.80;99.90;;;;;;5033159;28;20012;-77
2022/01/16 13:02:43;;;;;;;;;;;6.90;99.90;;;;;;5012670;28;19925;-77
2022/01/16 13:05:09;;;;;;;;;;;6.90;99.90;;;;;;5013971;28;20008;-77
2022/01/16 13:07:36;;;;;;;;;;;6.90;99.90;;;;;;5012734;28;19926;-77
2022/01/16 13:10:03;;;;;;;;;;;6.90;99.90;;;;;;5006900;28;19925;-77
2022/01/16 13:12:31;;;;;;;;;;;6.90;99.90;;;;;;5013041;28;20186;-77
2022/01/16 13:15:00;;;;;;;;;;;6.90;99.90;;;;;;5026770;28;19957;-77
2022/01/16 13:17:25;;;;;;;;;;;6.80;99.90;;;;;;5008985;28;20015;-77
2022/01/16 13:19:57;;;;;;;;;;;6.80;99.90;;;;;;5012584;28;20011;-77
2022/01/16 13:22:26;;;;;;;;;;;6.90;99.90;;;;;;5014213;28;19944;-77
2022/01/16 13:25:01;;;;;;;;;;;6.90;99.90;;;;;;5005771;28;19921;-77
2022/01/16 13:27:34;;;;;;;;;;;6.80;99.90;;;;;;5013754;28;19921;-77
2022/01/16 13:29:59;;;;;;;;;;;6.80;99.90;;;;;;5008961;28;20287;-77
2022/01/16 13:32:35;;;;;;;;;;;6.80;99.90;;;;;;5015037;28;19929;-77
2022/01/16 13:35:02;;;;;;;;;;;6.80;99.90;;;;;;5018453;28;19921;-77
2022/01/16 13:37:29;;;;;;;;;;;6.80;99.90;;;;;;5014265;28;19921;-77
2022/01/16 13:40:02;;;;;;;;;;;6.70;99.90;;;;;;5008860;28;19921;-77
2022/01/16 13:45:25;;;;;;;;;;;6.70;99.90;;;;;;5024326;28;19932;-77
2022/01/16 13:47:54;;;;;;;;;;;6.60;99.90;;;;;;5003455;28;19928;-76
2022/01/16 13:50:22;;;;;;;;;;;6.60;99.90;;;;;;5009772;28;20015;-77
2022/01/16 13:52:54;;;;;;;;;;;6.50;99.90;;;;;;5009254;28;19921;-77
2022/01/16 13:55:20;;;;;;;;;;;6.50;99.90;;;;;;5004856;28;19972;-77
2022/01/16 13:57:46;;;;;;;;;;;6.50;99.90;;;;;;5020036;28;19925;-77
2022/01/16 14:00:12;;;;;;;;;;;6.50;99.90;;;;;;5007344;28;20387;-76
2022/01/16 14:02:38;;;;;;;;;;;6.40;99.90;;;;;;5032464;28;19921;-77
2022/01/16 14:05:04;;;;;;;;;;;6.40;99.90;;;;;;5012574;28;19922;-77
2022/01/16 14:07:30;;;;;;;;;;;6.40;99.90;;;;;;5015510;28;20291;-76
2022/01/16 14:09:56;;;;;;;;;;;6.40;99.90;;;;;;5025835;28;19937;-76
2022/01/16 14:12:22;;;;;;;;;;;6.40;99.90;;;;;;5012272;28;19929;-77
2022/01/16 14:14:49;;;;;;;;;;;6.40;99.90;;;;;;5007980;28;19921;-77
2022/01/16 14:18:06;;;;;;;;;;;6.40;99.90;;;;;;5007585;28;19929;-77
2022/01/16 14:20:23;;;;;;;;;;;6.40;99.90;;;;;;5018966;28;19999;-76
2022/01/16 14:22:47;;;;;;;;;;;6.40;99.90;;;;;;5024954;28;19963;-77
2022/01/16 14:25:12;;;;;;;;;;;6.40;99.90;;;;;;5029987;28;19964;-73
2022/01/16 14:27:38;;;;;;;;;;;6.40;99.90;;;;;;5009045;28;19938;-75
2022/01/16 14:30:05;;;;;;;;;;;6.40;99.90;;;;;;5006748;28;19944;-75
2022/01/16 14:32:31;;;;;;;;;;;6.40;99.90;;;;;;5011390;28;19928;-74
2022/01/16 14:35:02;;;;;;;;;;;6.40;99.90;;;;;;5013372;28;20279;-74
2022/01/16 14:37:31;;;;;;;;;;;6.40;99.90;;;;;;5027012;28;20000;-76
2022/01/16 14:39:57;;;;;;;;;;;6.40;99.90;;;;;;5026328;28;19921;-76
2022/01/16 14:42:30;;;;;;;;;;;6.40;99.90;;;;;;5016240;28;20435;-75
2022/01/16 14:44:56;;;;;;;;;;;6.40;99.90;;;;;;5016372;28;19980;-75
2022/01/16 14:47:23;;;;;;;;;;;6.40;99.90;;;;;;5031663;28;20012;-75
2022/01/16 14:49:48;;;;;;;;;;;6.40;99.90;;;;;;5036736;28;19963;-77
2022/01/16 14:52:14;;;;;;;;;;;6.30;99.90;;;;;;5024992;28;19921;-77
2022/01/16 14:54:40;;;;;;;;;;;6.40;99.90;;;;;;5030247;28;19921;-80
2022/01/16 14:57:06;;;;;;;;;;;6.30;99.90;;;;;;5033741;28;19980;-79
2022/01/16 14:59:33;;;;;;;;;;;6.40;99.90;;;;;;5014937;28;20552;-76
2022/01/16 15:01:59;;;;;;;;;;;6.30;99.90;;;;;;5022297;28;19921;-76
2022/01/16 15:04:24;;;;;;;;;;;6.30;99.90;;;;;;5014055;28;19932;-76
2022/01/16 15:06:50;;;;;;;;;;;6.30;99.90;;;;;;5027746;28;19921;-76
2022/01/16 15:09:15;;;;;;;;;;;6.40;99.90;;;;;;5015224;28;19972;-76
2022/01/16 15:11:41;;;;;;;;;;;6.40;99.90;;;;;;5034497;28;19923;-76